sensor_id;sensor_type;location;lat;lon;timestamp;P1;durP1;ratioP1;P2;durP2;ratioP2
44048;SDS011;29717;47.028;15.470;2022-09-09T00:01:32;4.03;;;0.80;;
44048;SDS011;29717;47.028;15.470;2022-09-09T00:04:05;1.30;;;0.88;;
44048;SDS011;29717;47.028;15.470;2022-09-09T00:06:42;1.90;;;0.82;;
44048;SDS011;29717;47.028;15.470;2022-09-09T00:09:11;1.85;;;0.80;;
44048;SDS011;29717;47.028;15.470;2022-09-09T00:11:40;3.63;;;1.10;;
44048;SDS011;29717;47.028;15.470;2022-09-09T00:14:10;4.20;;;0.90;;
44048;SDS011;29717;47.028;15.470;2022-09-09T00:16:39;2.58;;;1.20;;
44048;SDS011;29717;47.028;15.470;2022-09-09T00:19:12;2.00;;;1.48;;
44048;SDS011;29717;47.028;15.470;2022-09-09T00:21:46;3.40;;;1.33;;
44048;SDS011;29717;47.028;15.470;2022-09-09T00:24:16;1.45;;;1.35;;
44048;SDS011;29717;47.028;15.470;2022-09-09T00:26:47;2.92;;;1.30;;
44048;SDS011;29717;47.028;15.470;2022-09-09T00:29:18;3.92;;;1.40;;
44048;SDS011;29717;47.028;15.470;2022-09-09T00:31:48;5.22;;;1.20;;
44048;SDS011;29717;47.028;15.470;2022-09-09T00:34:16;2.85;;;1.20;;
44048;SDS011;29717;47.028;15.470;2022-09-09T00:36:46;2.08;;;1.33;;
44048;SDS011;29717;47.028;15.470;2022-09-09T00:39:27;3.35;;;1.23;;
44048;SDS011;29717;47.028;15.470;2022-09-09T00:42:02;1.67;;;1.40;;
44048;SDS011;29717;47.028;15.470;2022-09-09T00:44:36;4.45;;;1.50;;
44048;SDS011;29717;47.028;15.470;2022-09-09T00:47:04;2.55;;;1.30;;
44048;SDS011;29717;47.028;15.470;2022-09-09T00:49:41;6.07;;;1.50;;
44048;SDS011;29717;47.028;15.470;2022-09-09T00:52:17;10.45;;;1.73;;
44048;SDS011;29717;47.028;15.470;2022-09-09T00:54:46;7.28;;;1.38;;
44048;SDS011;29717;47.028;15.470;2022-09-09T00:57:25;4.43;;;1.00;;
44048;SDS011;29717;47.028;15.470;2022-09-09T00:59:52;5.20;;;1.13;;
44048;SDS011;29717;47.028;15.470;2022-09-09T01:02:26;6.90;;;1.30;;
44048;SDS011;29717;47.028;15.470;2022-09-09T01:04:54;3.50;;;1.10;;
44048;SDS011;29717;47.028;15.470;2022-09-09T01:07:25;3.42;;;1.20;;
44048;SDS011;29717;47.028;15.470;2022-09-09T01:09:53;1.40;;;1.30;;
44048;SDS011;29717;47.028;15.470;2022-09-09T01:12:25;3.03;;;1.20;;
44048;SDS011;29717;47.028;15.470;2022-09-09T01:14:53;3.15;;;0.90;;
44048;SDS011;29717;47.028;15.470;2022-09-09T01:17:24;1.10;;;1.00;;
44048;SDS011;29717;47.028;15.470;2022-09-09T01:19:55;4.80;;;1.10;;
44048;SDS011;29717;47.028;15.470;2022-09-09T01:22:29;4.10;;;1.27;;
44048;SDS011;29717;47.028;15.470;2022-09-09T01:25:11;2.30;;;1.20;;
44048;SDS011;29717;47.028;15.470;2022-09-09T01:27:41;2.05;;;1.40;;
44048;SDS011;29717;47.028;15.470;2022-09-09T01:30:09;4.15;;;1.50;;
44048;SDS011;29717;47.028;15.470;2022-09-09T01:32:38;3.40;;;1.30;;
44048;SDS011;29717;47.028;15.470;2022-09-09T01:35:06;3.58;;;1.38;;
44048;SDS011;29717;47.028;15.470;2022-09-09T01:37:37;3.83;;;1.10;;
44048;SDS011;29717;47.028;15.470;2022-09-09T01:40:04;5.57;;;1.15;;
44048;SDS011;29717;47.028;15.470;2022-09-09T01:42:31;2.60;;;1.05;;
44048;SDS011;29717;47.028;15.470;2022-09-09T01:44:59;3.78;;;1.35;;
44048;SDS011;29717;47.028;15.470;2022-09-09T01:47:26;1.38;;;1.15;;
44048;SDS011;29717;47.028;15.470;2022-09-09T01:49:53;1.38;;;1.00;;
44048;SDS011;29717;47.028;15.470;2022-09-09T01:52:20;5.72;;;1.20;;
44048;SDS011;29717;47.028;15.470;2022-09-09T01:54:46;3.42;;;1.40;;
44048;SDS011;29717;47.028;15.470;2022-09-09T01:57:15;3.42;;;1.30;;
44048;SDS011;29717;47.028;15.470;2022-09-09T01:59:53;2.25;;;1.20;;
44048;SDS011;29717;47.028;15.470;2022-09-09T02:08:15;4.55;;;1.33;;
44048;SDS011;29717;47.028;15.470;2022-09-09T02:10:44;2.38;;;1.23;;
44048;SDS011;29717;47.028;15.470;2022-09-09T02:13:14;3.33;;;1.00;;
44048;SDS011;29717;47.028;15.470;2022-09-09T02:15:42;3.03;;;1.20;;
44048;SDS011;29717;47.028;15.470;2022-09-09T02:18:10;6.40;;;1.27;;
44048;SDS011;29717;47.028;15.470;2022-09-09T02:20:39;5.15;;;1.10;;
44048;SDS011;29717;47.028;15.470;2022-09-09T02:23:07;5.90;;;1.42;;
44048;SDS011;29717;47.028;15.470;2022-09-09T02:25:36;2.33;;;1.23;;
44048;SDS011;29717;47.028;15.470;2022-09-09T02:28:04;1.10;;;1.00;;
44048;SDS011;29717;47.028;15.470;2022-09-09T02:30:33;2.72;;;1.50;;
44048;SDS011;29717;47.028;15.470;2022-09-09T02:33:01;5.20;;;1.42;;
44048;SDS011;29717;47.028;15.470;2022-09-09T02:35:29;1.92;;;1.17;;
44048;SDS011;29717;47.028;15.470;2022-09-09T02:37:59;2.17;;;1.30;;
44048;SDS011;29717;47.028;15.470;2022-09-09T02:40:26;2.92;;;1.40;;
44048;SDS011;29717;47.028;15.470;2022-09-09T02:42:54;1.27;;;1.17;;
44048;SDS011;29717;47.028;15.470;2022-09-09T02:45:23;2.92;;;1.10;;
44048;SDS011;29717;47.028;15.470;2022-09-09T02:47:51;5.60;;;1.60;;
44048;SDS011;29717;47.028;15.470;2022-09-09T02:50:23;2.70;;;1.55;;
44048;SDS011;29717;47.028;15.470;2022-09-09T02:52:59;4.28;;;1.63;;
44048;SDS011;29717;47.028;15.470;2022-09-09T02:55:29;1.65;;;1.55;;
44048;SDS011;29717;47.028;15.470;2022-09-09T02:58:03;2.97;;;1.30;;
44048;SDS011;29717;47.028;15.470;2022-09-09T03:00:31;9.77;;;1.95;;
44048;SDS011;29717;47.028;15.470;2022-09-09T03:02:59;2.38;;;1.58;;
44048;SDS011;29717;47.028;15.470;2022-09-09T03:05:26;3.85;;;1.50;;
44048;SDS011;29717;47.028;15.470;2022-09-09T03:07:53;1.80;;;1.20;;
44048;SDS011;29717;47.028;15.470;2022-09-09T03:10:20;4.13;;;1.42;;
44048;SDS011;29717;47.028;15.470;2022-09-09T03:12:47;8.63;;;1.27;;
44048;SDS011;29717;47.028;15.470;2022-09-09T03:15:15;2.90;;;1.23;;
44048;SDS011;29717;47.028;15.470;2022-09-09T03:17:42;4.38;;;1.35;;
44048;SDS011;29717;47.028;15.470;2022-09-09T03:20:09;7.45;;;1.30;;
44048;SDS011;29717;47.028;15.470;2022-09-09T03:22:37;5.35;;;1.20;;
44048;SDS011;29717;47.028;15.470;2022-09-09T03:27:34;5.10;;;1.40;;
44048;SDS011;29717;47.028;15.470;2022-09-09T03:30:01;5.43;;;1.30;;
44048;SDS011;29717;47.028;15.470;2022-09-09T03:32:30;7.07;;;1.23;;
44048;SDS011;29717;47.028;15.470;2022-09-09T03:34:57;5.03;;;1.15;;
44048;SDS011;29717;47.028;15.470;2022-09-09T03:37:24;1.52;;;1.15;;
44048;SDS011;29717;47.028;15.470;2022-09-09T03:39:51;5.18;;;1.08;;
44048;SDS011;29717;47.028;15.470;2022-09-09T03:42:19;5.18;;;1.30;;
44048;SDS011;29717;47.028;15.470;2022-09-09T03:44:46;5.40;;;1.10;;
44048;SDS011;29717;47.028;15.470;2022-09-09T03:47:15;3.13;;;1.20;;
44048;SDS011;29717;47.028;15.470;2022-09-09T03:49:44;1.83;;;1.20;;
44048;SDS011;29717;47.028;15.470;2022-09-09T03:52:11;4.07;;;1.50;;
44048;SDS011;29717;47.028;15.470;2022-09-09T03:54:38;2.83;;;1.30;;
44048;SDS011;29717;47.028;15.470;2022-09-09T03:57:05;3.97;;;1.40;;
44048;SDS011;29717;47.028;15.470;2022-09-09T03:59:32;5.65;;;1.60;;
44048;SDS011;29717;47.028;15.470;2022-09-09T04:02:00;3.92;;;1.70;;
44048;SDS011;29717;47.028;15.470;2022-09-09T04:04:27;4.15;;;1.73;;
44048;SDS011;29717;47.028;15.470;2022-09-09T04:06:55;3.03;;;1.80;;
44048;SDS011;29717;47.028;15.470;2022-09-09T04:09:22;5.35;;;2.20;;
44048;SDS011;29717;47.028;15.470;2022-09-09T04:11:48;2.53;;;2.00;;
44048;SDS011;29717;47.028;15.470;2022-09-09T04:14:15;2.13;;;1.90;;
44048;SDS011;29717;47.028;15.470;2022-09-09T04:16:42;3.90;;;2.08;;
44048;SDS011;29717;47.028;15.470;2022-09-09T04:19:09;2.75;;;2.28;;
44048;SDS011;29717;47.028;15.470;2022-09-09T04:21:37;3.38;;;2.08;;
44048;SDS011;29717;47.028;15.470;2022-09-09T04:24:06;4.82;;;2.58;;
44048;SDS011;29717;47.028;15.470;2022-09-09T04:26:34;3.83;;;2.55;;
44048;SDS011;29717;47.028;15.470;2022-09-09T04:29:01;6.75;;;2.50;;
44048;SDS011;29717;47.028;15.470;2022-09-09T04:31:28;6.70;;;2.85;;
44048;SDS011;29717;47.028;15.470;2022-09-09T04:33:57;6.15;;;2.78;;
44048;SDS011;29717;47.028;15.470;2022-09-09T04:36:27;6.50;;;2.85;;
44048;SDS011;29717;47.028;15.470;2022-09-09T04:38:54;4.85;;;2.72;;
44048;SDS011;29717;47.028;15.470;2022-09-09T04:41:22;7.53;;;2.30;;
44048;SDS011;29717;47.028;15.470;2022-09-09T04:43:49;6.68;;;2.40;;
44048;SDS011;29717;47.028;15.470;2022-09-09T04:46:18;4.53;;;2.47;;
44048;SDS011;29717;47.028;15.470;2022-09-09T04:48:45;5.50;;;2.67;;
44048;SDS011;29717;47.028;15.470;2022-09-09T04:51:13;4.32;;;2.42;;
44048;SDS011;29717;47.028;15.470;2022-09-09T04:53:40;3.53;;;2.80;;
44048;SDS011;29717;47.028;15.470;2022-09-09T04:56:07;7.65;;;2.85;;
44048;SDS011;29717;47.028;15.470;2022-09-09T04:58:36;5.40;;;2.90;;
44048;SDS011;29717;47.028;15.470;2022-09-09T05:01:04;4.32;;;2.97;;
44048;SDS011;29717;47.028;15.470;2022-09-09T05:03:31;5.47;;;3.22;;
44048;SDS011;29717;47.028;15.470;2022-09-09T05:06:08;5.65;;;2.97;;
44048;SDS011;29717;47.028;15.470;2022-09-09T05:08:35;2.75;;;2.50;;
44048;SDS011;29717;47.028;15.470;2022-09-09T05:11:02;6.75;;;2.80;;
44048;SDS011;29717;47.028;15.470;2022-09-09T05:13:29;7.00;;;3.10;;
44048;SDS011;29717;47.028;15.470;2022-09-09T05:15:58;3.28;;;2.67;;
44048;SDS011;29717;47.028;15.470;2022-09-09T05:18:25;3.40;;;2.70;;
44048;SDS011;29717;47.028;15.470;2022-09-09T05:20:51;5.72;;;2.88;;
44048;SDS011;29717;47.028;15.470;2022-09-09T05:23:18;4.38;;;3.00;;
44048;SDS011;29717;47.028;15.470;2022-09-09T05:25:53;7.63;;;2.80;;
44048;SDS011;29717;47.028;15.470;2022-09-09T05:28:20;2.72;;;2.53;;
44048;SDS011;29717;47.028;15.470;2022-09-09T05:30:54;4.10;;;2.50;;
44048;SDS011;29717;47.028;15.470;2022-09-09T05:33:22;7.43;;;2.33;;
44048;SDS011;29717;47.028;15.470;2022-09-09T05:35:54;2.53;;;2.33;;
44048;SDS011;29717;47.028;15.470;2022-09-09T05:38:21;6.90;;;2.63;;
44048;SDS011;29717;47.028;15.470;2022-09-09T05:40:50;3.20;;;2.30;;
44048;SDS011;29717;47.028;15.470;2022-09-09T05:43:17;3.83;;;2.58;;
44048;SDS011;29717;47.028;15.470;2022-09-09T05:45:45;6.75;;;2.30;;
44048;SDS011;29717;47.028;15.470;2022-09-09T05:48:12;3.67;;;2.33;;
44048;SDS011;29717;47.028;15.470;2022-09-09T05:50:41;2.80;;;2.10;;
44048;SDS011;29717;47.028;15.470;2022-09-09T05:53:10;2.90;;;1.92;;
44048;SDS011;29717;47.028;15.470;2022-09-09T05:55:36;2.63;;;2.13;;
44048;SDS011;29717;47.028;15.470;2022-09-09T05:58:03;3.50;;;2.15;;
44048;SDS011;29717;47.028;15.470;2022-09-09T06:00:30;2.38;;;1.85;;
44048;SDS011;29717;47.028;15.470;2022-09-09T06:02:57;2.35;;;2.15;;
44048;SDS011;29717;47.028;15.470;2022-09-09T06:05:24;4.00;;;2.00;;
44048;SDS011;29717;47.028;15.470;2022-09-09T06:07:54;2.78;;;2.10;;
44048;SDS011;29717;47.028;15.470;2022-09-09T06:10:21;3.78;;;2.10;;
44048;SDS011;29717;47.028;15.470;2022-09-09T06:12:48;3.47;;;2.33;;
44048;SDS011;29717;47.028;15.470;2022-09-09T06:15:15;3.60;;;2.15;;
44048;SDS011;29717;47.028;15.470;2022-09-09T06:17:42;2.70;;;1.95;;
44048;SDS011;29717;47.028;15.470;2022-09-09T06:20:10;5.13;;;1.80;;
44048;SDS011;29717;47.028;15.470;2022-09-09T06:22:38;3.55;;;2.20;;
44048;SDS011;29717;47.028;15.470;2022-09-09T06:25:08;7.82;;;2.42;;
44048;SDS011;29717;47.028;15.470;2022-09-09T06:27:34;30.90;;;24.70;;
44048;SDS011;29717;47.028;15.470;2022-09-09T06:30:01;37.05;;;32.92;;
44048;SDS011;29717;47.028;15.470;2022-09-09T06:32:29;14.75;;;13.20;;
44048;SDS011;29717;47.028;15.470;2022-09-09T06:34:56;3.95;;;3.55;;
44048;SDS011;29717;47.028;15.470;2022-09-09T06:37:26;5.45;;;2.25;;
44048;SDS011;29717;47.028;15.470;2022-09-09T06:39:53;4.57;;;2.30;;
44048;SDS011;29717;47.028;15.470;2022-09-09T06:42:21;6.47;;;2.08;;
44048;SDS011;29717;47.028;15.470;2022-09-09T06:44:48;3.10;;;2.00;;
44048;SDS011;29717;47.028;15.470;2022-09-09T06:47:14;3.63;;;1.88;;
44048;SDS011;29717;47.028;15.470;2022-09-09T06:49:41;9.68;;;2.88;;
44048;SDS011;29717;47.028;15.470;2022-09-09T06:52:09;6.75;;;2.60;;
44048;SDS011;29717;47.028;15.470;2022-09-09T06:54:36;4.22;;;2.83;;
44048;SDS011;29717;47.028;15.470;2022-09-09T06:57:02;7.03;;;2.92;;
44048;SDS011;29717;47.028;15.470;2022-09-09T06:59:33;7.63;;;3.10;;
44048;SDS011;29717;47.028;15.470;2022-09-09T07:02:00;7.72;;;2.38;;
44048;SDS011;29717;47.028;15.470;2022-09-09T07:04:27;3.05;;;2.42;;
44048;SDS011;29717;47.028;15.470;2022-09-09T07:06:54;6.10;;;2.78;;
44048;SDS011;29717;47.028;15.470;2022-09-09T07:09:20;7.10;;;2.50;;
44048;SDS011;29717;47.028;15.470;2022-09-09T07:11:48;9.07;;;3.00;;
44048;SDS011;29717;47.028;15.470;2022-09-09T07:14:16;7.55;;;2.80;;
44048;SDS011;29717;47.028;15.470;2022-09-09T07:16:44;7.65;;;3.00;;
44048;SDS011;29717;47.028;15.470;2022-09-09T07:19:11;6.22;;;2.78;;
44048;SDS011;29717;47.028;15.470;2022-09-09T07:21:39;7.90;;;2.75;;
44048;SDS011;29717;47.028;15.470;2022-09-09T07:24:06;9.02;;;2.78;;
44048;SDS011;29717;47.028;15.470;2022-09-09T07:26:35;9.45;;;3.17;;
44048;SDS011;29717;47.028;15.470;2022-09-09T07:29:02;9.77;;;3.03;;
44048;SDS011;29717;47.028;15.470;2022-09-09T07:31:30;9.05;;;2.67;;
44048;SDS011;29717;47.028;15.470;2022-09-09T07:33:59;9.95;;;2.75;;
44048;SDS011;29717;47.028;15.470;2022-09-09T07:36:26;9.27;;;3.10;;
44048;SDS011;29717;47.028;15.470;2022-09-09T07:38:54;7.80;;;3.10;;
44048;SDS011;29717;47.028;15.470;2022-09-09T07:41:22;6.57;;;3.30;;
44048;SDS011;29717;47.028;15.470;2022-09-09T07:43:50;8.18;;;2.78;;
44048;SDS011;29717;47.028;15.470;2022-09-09T07:46:17;6.78;;;3.00;;
44048;SDS011;29717;47.028;15.470;2022-09-09T07:48:45;7.43;;;3.17;;
44048;SDS011;29717;47.028;15.470;2022-09-09T07:51:18;7.88;;;3.85;;
44048;SDS011;29717;47.028;15.470;2022-09-09T07:53:47;6.13;;;3.30;;
44048;SDS011;29717;47.028;15.470;2022-09-09T07:56:15;6.22;;;2.70;;
44048;SDS011;29717;47.028;15.470;2022-09-09T07:58:44;8.80;;;2.72;;
44048;SDS011;29717;47.028;15.470;2022-09-09T08:01:12;7.75;;;2.75;;
44048;SDS011;29717;47.028;15.470;2022-09-09T08:03:39;6.60;;;2.90;;
44048;SDS011;29717;47.028;15.470;2022-09-09T08:06:06;5.30;;;3.28;;
44048;SDS011;29717;47.028;15.470;2022-09-09T08:08:35;8.20;;;2.72;;
44048;SDS011;29717;47.028;15.470;2022-09-09T08:11:04;6.10;;;3.58;;
44048;SDS011;29717;47.028;15.470;2022-09-09T08:13:33;11.45;;;3.92;;
44048;SDS011;29717;47.028;15.470;2022-09-09T08:16:06;8.45;;;3.00;;
44048;SDS011;29717;47.028;15.470;2022-09-09T08:18:33;7.70;;;3.10;;
44048;SDS011;29717;47.028;15.470;2022-09-09T08:21:10;12.35;;;5.40;;
44048;SDS011;29717;47.028;15.470;2022-09-09T08:23:40;5.40;;;3.85;;
44048;SDS011;29717;47.028;15.470;2022-09-09T08:26:10;8.50;;;3.78;;
44048;SDS011;29717;47.028;15.470;2022-09-09T08:28:37;6.15;;;3.03;;
44048;SDS011;29717;47.028;15.470;2022-09-09T08:31:05;3.88;;;2.80;;
44048;SDS011;29717;47.028;15.470;2022-09-09T08:33:32;4.63;;;2.92;;
44048;SDS011;29717;47.028;15.470;2022-09-09T08:35:59;5.65;;;3.90;;
44048;SDS011;29717;47.028;15.470;2022-09-09T08:38:26;5.53;;;3.58;;
44048;SDS011;29717;47.028;15.470;2022-09-09T08:40:56;5.00;;;3.20;;
44048;SDS011;29717;47.028;15.470;2022-09-09T08:43:26;8.07;;;3.42;;
44048;SDS011;29717;47.028;15.470;2022-09-09T08:45:55;8.65;;;3.78;;
44048;SDS011;29717;47.028;15.470;2022-09-09T08:48:30;8.68;;;3.30;;
44048;SDS011;29717;47.028;15.470;2022-09-09T08:51:02;7.68;;;3.22;;
44048;SDS011;29717;47.028;15.470;2022-09-09T08:53:34;6.85;;;3.58;;
44048;SDS011;29717;47.028;15.470;2022-09-09T08:56:06;5.53;;;3.45;;
44048;SDS011;29717;47.028;15.470;2022-09-09T08:58:39;6.13;;;3.05;;
44048;SDS011;29717;47.028;15.470;2022-09-09T09:01:22;7.03;;;3.30;;
44048;SDS011;29717;47.028;15.470;2022-09-09T09:03:54;8.30;;;3.20;;
44048;SDS011;29717;47.028;15.470;2022-09-09T09:06:26;5.57;;;2.90;;
44048;SDS011;29717;47.028;15.470;2022-09-09T09:09:04;4.80;;;2.58;;
44048;SDS011;29717;47.028;15.470;2022-09-09T09:11:37;5.80;;;2.65;;
44048;SDS011;29717;47.028;15.470;2022-09-09T09:14:08;4.70;;;2.30;;
44048;SDS011;29717;47.028;15.470;2022-09-09T09:16:38;6.72;;;2.50;;
44048;SDS011;29717;47.028;15.470;2022-09-09T09:19:07;6.82;;;2.92;;
44048;SDS011;29717;47.028;15.470;2022-09-09T09:21:36;6.90;;;2.70;;
44048;SDS011;29717;47.028;15.470;2022-09-09T09:24:05;5.45;;;2.25;;
44048;SDS011;29717;47.028;15.470;2022-09-09T09:26:35;6.13;;;2.40;;
44048;SDS011;29717;47.028;15.470;2022-09-09T09:29:08;6.53;;;2.45;;
44048;SDS011;29717;47.028;15.470;2022-09-09T09:31:37;4.60;;;2.20;;
44048;SDS011;29717;47.028;15.470;2022-09-09T09:34:04;6.05;;;2.33;;
44048;SDS011;29717;47.028;15.470;2022-09-09T09:36:34;5.65;;;2.15;;
44048;SDS011;29717;47.028;15.470;2022-09-09T09:39:02;4.57;;;2.00;;
44048;SDS011;29717;47.028;15.470;2022-09-09T09:41:31;3.42;;;1.90;;
44048;SDS011;29717;47.028;15.470;2022-09-09T09:43:58;5.85;;;2.15;;
44048;SDS011;29717;47.028;15.470;2022-09-09T09:46:28;4.88;;;1.90;;
44048;SDS011;29717;47.028;15.470;2022-09-09T09:49:01;4.03;;;2.00;;
44048;SDS011;29717;47.028;15.470;2022-09-09T09:51:29;6.38;;;2.13;;
44048;SDS011;29717;47.028;15.470;2022-09-09T09:54:06;3.20;;;1.80;;
44048;SDS011;29717;47.028;15.470;2022-09-09T09:56:34;4.55;;;1.75;;
44048;SDS011;29717;47.028;15.470;2022-09-09T09:59:03;2.13;;;1.73;;
44048;SDS011;29717;47.028;15.470;2022-09-09T10:01:31;2.40;;;1.70;;
44048;SDS011;29717;47.028;15.470;2022-09-09T10:03:59;3.92;;;1.98;;
44048;SDS011;29717;47.028;15.470;2022-09-09T10:06:31;3.25;;;1.25;;
44048;SDS011;29717;47.028;15.470;2022-09-09T10:08:58;2.97;;;1.80;;
44048;SDS011;29717;47.028;15.470;2022-09-09T10:11:35;2.22;;;1.58;;
44048;SDS011;29717;47.028;15.470;2022-09-09T10:14:11;6.65;;;1.70;;
44048;SDS011;29717;47.028;15.470;2022-09-09T10:16:48;3.55;;;1.40;;
44048;SDS011;29717;47.028;15.470;2022-09-09T10:19:21;3.33;;;1.20;;
44048;SDS011;29717;47.028;15.470;2022-09-09T10:21:56;7.03;;;1.65;;
44048;SDS011;29717;47.028;15.470;2022-09-09T10:24:32;3.33;;;1.50;;
44048;SDS011;29717;47.028;15.470;2022-09-09T10:27:03;3.40;;;1.52;;
44048;SDS011;29717;47.028;15.470;2022-09-09T10:29:35;2.75;;;1.38;;
44048;SDS011;29717;47.028;15.470;2022-09-09T10:32:10;3.85;;;1.73;;
44048;SDS011;29717;47.028;15.470;2022-09-09T10:34:50;4.93;;;1.80;;
44048;SDS011;29717;47.028;15.470;2022-09-09T10:37:25;2.22;;;1.50;;
44048;SDS011;29717;47.028;15.470;2022-09-09T10:40:00;2.72;;;1.60;;
44048;SDS011;29717;47.028;15.470;2022-09-09T10:42:30;4.30;;;2.03;;
44048;SDS011;29717;47.028;15.470;2022-09-09T10:45:00;4.70;;;1.52;;
44048;SDS011;29717;47.028;15.470;2022-09-09T10:47:36;11.25;;;2.05;;
44048;SDS011;29717;47.028;15.470;2022-09-09T10:50:18;5.40;;;1.30;;
44048;SDS011;29717;47.028;15.470;2022-09-09T10:52:53;4.85;;;1.52;;
44048;SDS011;29717;47.028;15.470;2022-09-09T10:55:26;2.40;;;1.48;;
44048;SDS011;29717;47.028;15.470;2022-09-09T10:57:55;4.47;;;1.40;;
44048;SDS011;29717;47.028;15.470;2022-09-09T11:00:24;4.00;;;1.60;;
44048;SDS011;29717;47.028;15.470;2022-09-09T11:02:55;3.63;;;1.20;;
44048;SDS011;29717;47.028;15.470;2022-09-09T11:05:24;3.22;;;1.42;;
44048;SDS011;29717;47.028;15.470;2022-09-09T11:07:55;4.60;;;1.38;;
44048;SDS011;29717;47.028;15.470;2022-09-09T11:10:23;3.53;;;1.50;;
44048;SDS011;29717;47.028;15.470;2022-09-09T11:12:51;3.17;;;1.63;;
44048;SDS011;29717;47.028;15.470;2022-09-09T11:15:20;3.45;;;1.42;;
44048;SDS011;29717;47.028;15.470;2022-09-09T11:17:49;3.47;;;1.73;;
44048;SDS011;29717;47.028;15.470;2022-09-09T11:20:19;5.40;;;1.50;;
44048;SDS011;29717;47.028;15.470;2022-09-09T11:22:47;2.55;;;1.40;;
44048;SDS011;29717;47.028;15.470;2022-09-09T11:25:15;2.28;;;1.52;;
44048;SDS011;29717;47.028;15.470;2022-09-09T11:27:44;1.70;;;1.33;;
44048;SDS011;29717;47.028;15.470;2022-09-09T11:30:19;3.38;;;1.40;;
44048;SDS011;29717;47.028;15.470;2022-09-09T11:32:54;2.40;;;1.50;;
44048;SDS011;29717;47.028;15.470;2022-09-09T11:35:33;4.18;;;1.20;;
44048;SDS011;29717;47.028;15.470;2022-09-09T11:40:43;2.75;;;1.52;;
44048;SDS011;29717;47.028;15.470;2022-09-09T11:43:10;3.72;;;1.42;;
44048;SDS011;29717;47.028;15.470;2022-09-09T11:45:39;2.20;;;1.23;;
44048;SDS011;29717;47.028;15.470;2022-09-09T11:48:21;3.58;;;1.13;;
44048;SDS011;29717;47.028;15.470;2022-09-09T11:50:58;4.22;;;1.20;;
44048;SDS011;29717;47.028;15.470;2022-09-09T11:53:25;1.77;;;1.20;;
44048;SDS011;29717;47.028;15.470;2022-09-09T11:56:06;3.40;;;1.33;;
44048;SDS011;29717;47.028;15.470;2022-09-09T11:58:36;2.00;;;1.10;;
44048;SDS011;29717;47.028;15.470;2022-09-09T12:01:12;1.85;;;1.10;;
44048;SDS011;29717;47.028;15.470;2022-09-09T12:03:40;1.70;;;1.00;;
44048;SDS011;29717;47.028;15.470;2022-09-09T12:06:13;2.13;;;1.10;;
44048;SDS011;29717;47.028;15.470;2022-09-09T12:08:42;1.35;;;0.90;;
44048;SDS011;29717;47.028;15.470;2022-09-09T12:11:10;1.80;;;1.30;;
44048;SDS011;29717;47.028;15.470;2022-09-09T12:13:36;2.70;;;1.10;;
44048;SDS011;29717;47.028;15.470;2022-09-09T12:16:03;2.75;;;1.20;;
44048;SDS011;29717;47.028;15.470;2022-09-09T12:18:32;2.10;;;1.10;;
44048;SDS011;29717;47.028;15.470;2022-09-09T12:21:03;2.47;;;1.40;;
44048;SDS011;29717;47.028;15.470;2022-09-09T12:23:39;1.23;;;1.13;;
44048;SDS011;29717;47.028;15.470;2022-09-09T12:26:18;1.33;;;1.20;;
44048;SDS011;29717;47.028;15.470;2022-09-09T12:28:53;1.45;;;1.17;;
44048;SDS011;29717;47.028;15.470;2022-09-09T12:31:22;1.88;;;1.40;;
44048;SDS011;29717;47.028;15.470;2022-09-09T12:33:51;1.80;;;1.30;;
44048;SDS011;29717;47.028;15.470;2022-09-09T12:36:18;1.73;;;1.20;;
44048;SDS011;29717;47.028;15.470;2022-09-09T12:38:47;1.90;;;1.38;;
44048;SDS011;29717;47.028;15.470;2022-09-09T12:41:19;2.50;;;1.13;;
44048;SDS011;29717;47.028;15.470;2022-09-09T12:43:46;2.47;;;1.33;;
44048;SDS011;29717;47.028;15.470;2022-09-09T12:46:14;3.20;;;1.80;;
44048;SDS011;29717;47.028;15.470;2022-09-09T12:48:44;2.45;;;1.10;;
44048;SDS011;29717;47.028;15.470;2022-09-09T12:51:16;1.67;;;1.15;;
44048;SDS011;29717;47.028;15.470;2022-09-09T12:53:44;1.45;;;1.35;;
44048;SDS011;29717;47.028;15.470;2022-09-09T12:56:19;3.03;;;1.40;;
44048;SDS011;29717;47.028;15.470;2022-09-09T12:58:47;3.78;;;1.52;;
44048;SDS011;29717;47.028;15.470;2022-09-09T13:01:18;1.50;;;1.13;;
44048;SDS011;29717;47.028;15.470;2022-09-09T13:03:46;1.95;;;1.30;;
44048;SDS011;29717;47.028;15.470;2022-09-09T13:06:17;2.75;;;1.35;;
44048;SDS011;29717;47.028;15.470;2022-09-09T13:08:45;3.20;;;1.27;;
44048;SDS011;29717;47.028;15.470;2022-09-09T13:11:13;3.60;;;1.25;;
44048;SDS011;29717;47.028;15.470;2022-09-09T13:13:42;1.95;;;1.25;;
44048;SDS011;29717;47.028;15.470;2022-09-09T13:16:18;4.38;;;1.63;;
44048;SDS011;29717;47.028;15.470;2022-09-09T13:18:45;2.25;;;1.30;;
44048;SDS011;29717;47.028;15.470;2022-09-09T13:21:13;1.35;;;1.15;;
44048;SDS011;29717;47.028;15.470;2022-09-09T13:23:40;2.25;;;1.05;;
44048;SDS011;29717;47.028;15.470;2022-09-09T13:26:19;3.95;;;3.35;;
44048;SDS011;29717;47.028;15.470;2022-09-09T13:28:49;2.88;;;2.45;;
44048;SDS011;29717;47.028;15.470;2022-09-09T13:31:20;2.80;;;2.60;;
44048;SDS011;29717;47.028;15.470;2022-09-09T13:33:47;3.88;;;3.58;;
44048;SDS011;29717;47.028;15.470;2022-09-09T13:36:14;4.30;;;3.10;;
44048;SDS011;29717;47.028;15.470;2022-09-09T13:38:53;2.08;;;1.88;;
44048;SDS011;29717;47.028;15.470;2022-09-09T13:41:20;1.98;;;0.93;;
44048;SDS011;29717;47.028;15.470;2022-09-09T13:43:50;1.60;;;1.13;;
44048;SDS011;29717;47.028;15.470;2022-09-09T13:46:36;3.03;;;1.02;;
44048;SDS011;29717;47.028;15.470;2022-09-09T13:49:18;3.60;;;1.50;;
44048;SDS011;29717;47.028;15.470;2022-09-09T13:51:46;2.08;;;1.40;;
44048;SDS011;29717;47.028;15.470;2022-09-09T13:54:17;3.67;;;1.13;;
44048;SDS011;29717;47.028;15.470;2022-09-09T13:56:44;2.50;;;1.20;;
44048;SDS011;29717;47.028;15.470;2022-09-09T13:59:13;2.42;;;1.23;;
44048;SDS011;29717;47.028;15.470;2022-09-09T14:01:40;0.90;;;0.90;;
44048;SDS011;29717;47.028;15.470;2022-09-09T14:04:07;1.60;;;1.17;;
44048;SDS011;29717;47.028;15.470;2022-09-09T14:06:34;1.40;;;1.17;;
44048;SDS011;29717;47.028;15.470;2022-09-09T14:09:02;2.20;;;1.15;;
44048;SDS011;29717;47.028;15.470;2022-09-09T14:11:29;1.75;;;1.10;;
44048;SDS011;29717;47.028;15.470;2022-09-09T14:13:56;1.85;;;1.25;;
44048;SDS011;29717;47.028;15.470;2022-09-09T14:16:24;1.15;;;1.02;;
44048;SDS011;29717;47.028;15.470;2022-09-09T14:18:53;1.92;;;1.25;;
44048;SDS011;29717;47.028;15.470;2022-09-09T14:21:21;2.10;;;1.35;;
44048;SDS011;29717;47.028;15.470;2022-09-09T14:23:48;5.45;;;1.40;;
44048;SDS011;29717;47.028;15.470;2022-09-09T14:26:15;1.63;;;1.35;;
44048;SDS011;29717;47.028;15.470;2022-09-09T14:28:44;2.85;;;1.40;;
44048;SDS011;29717;47.028;15.470;2022-09-09T14:31:11;3.25;;;1.45;;
44048;SDS011;29717;47.028;15.470;2022-09-09T14:33:40;1.30;;;1.20;;
44048;SDS011;29717;47.028;15.470;2022-09-09T14:36:07;2.90;;;1.80;;
44048;SDS011;29717;47.028;15.470;2022-09-09T14:38:34;1.58;;;1.35;;
44048;SDS011;29717;47.028;15.470;2022-09-09T14:41:04;2.13;;;1.20;;
44048;SDS011;29717;47.028;15.470;2022-09-09T14:43:31;3.00;;;1.40;;
44048;SDS011;29717;47.028;15.470;2022-09-09T14:46:04;4.50;;;1.60;;
44048;SDS011;29717;47.028;15.470;2022-09-09T14:48:30;1.80;;;1.50;;
44048;SDS011;29717;47.028;15.470;2022-09-09T14:51:05;2.00;;;1.48;;
44048;SDS011;29717;47.028;15.470;2022-09-09T14:53:32;2.38;;;1.70;;
44048;SDS011;29717;47.028;15.470;2022-09-09T14:56:03;5.53;;;1.58;;
44048;SDS011;29717;47.028;15.470;2022-09-09T14:58:30;3.60;;;1.80;;